sensor_id;sensor_type;location;lat;lon;timestamp;P1;durP1;ratioP1;P2;durP2;ratioP2
41323;SDS011;27073;51.128;4.220;2023-03-14T00:01:29;6.60;;;1.75;;
41323;SDS011;27073;51.128;4.220;2023-03-14T00:03:55;6.40;;;1.63;;
41323;SDS011;27073;51.128;4.220;2023-03-14T00:06:21;5.00;;;1.25;;
41323;SDS011;27073;51.128;4.220;2023-03-14T00:08:47;7.75;;;1.10;;
41323;SDS011;27073;51.128;4.220;2023-03-14T00:11:14;5.07;;;1.40;;
41323;SDS011;27073;51.128;4.220;2023-03-14T00:13:41;6.82;;;1.48;;
41323;SDS011;27073;51.128;4.220;2023-03-14T00:16:08;5.68;;;1.52;;
41323;SDS011;27073;51.128;4.220;2023-03-14T00:18:36;6.22;;;1.10;;
41323;SDS011;27073;51.128;4.220;2023-03-14T00:21:03;4.78;;;1.20;;
41323;SDS011;27073;51.128;4.220;2023-03-14T00:23:30;7.70;;;1.30;;
41323;SDS011;27073;51.128;4.220;2023-03-14T00:25:58;6.00;;;1.20;;
41323;SDS011;27073;51.128;4.220;2023-03-14T00:28:28;9.20;;;2.13;;
41323;SDS011;27073;51.128;4.220;2023-03-14T00:30:54;7.63;;;1.38;;
41323;SDS011;27073;51.128;4.220;2023-03-14T00:33:21;4.82;;;1.02;;
41323;SDS011;27073;51.128;4.220;2023-03-14T00:35:53;6.82;;;1.23;;
41323;SDS011;27073;51.128;4.220;2023-03-14T00:38:23;5.15;;;1.40;;
41323;SDS011;27073;51.128;4.220;2023-03-14T00:40:50;4.40;;;1.10;;
41323;SDS011;27073;51.128;4.220;2023-03-14T00:43:17;4.97;;;1.35;;
41323;SDS011;27073;51.128;4.220;2023-03-14T00:45:43;6.45;;;1.30;;
41323;SDS011;27073;51.128;4.220;2023-03-14T00:48:09;9.00;;;1.98;;
41323;SDS011;27073;51.128;4.220;2023-03-14T00:50:35;6.22;;;1.73;;
41323;SDS011;27073;51.128;4.220;2023-03-14T00:53:01;9.05;;;2.25;;
41323;SDS011;27073;51.128;4.220;2023-03-14T00:55:26;9.43;;;1.50;;
41323;SDS011;27073;51.128;4.220;2023-03-14T00:57:53;10.05;;;2.60;;
41323;SDS011;27073;51.128;4.220;2023-03-14T01:00:18;8.93;;;2.45;;
41323;SDS011;27073;51.128;4.220;2023-03-14T01:02:44;11.57;;;2.28;;
41323;SDS011;27073;51.128;4.220;2023-03-14T01:05:10;11.95;;;1.80;;
41323;SDS011;27073;51.128;4.220;2023-03-14T01:07:36;7.80;;;1.83;;
41323;SDS011;27073;51.128;4.220;2023-03-14T01:10:05;9.40;;;2.22;;
41323;SDS011;27073;51.128;4.220;2023-03-14T01:12:31;10.77;;;1.92;;
41323;SDS011;27073;51.128;4.220;2023-03-14T01:14:57;9.73;;;1.95;;
41323;SDS011;27073;51.128;4.220;2023-03-14T01:17:23;6.90;;;2.00;;
41323;SDS011;27073;51.128;4.220;2023-03-14T01:19:49;11.68;;;2.47;;
41323;SDS011;27073;51.128;4.220;2023-03-14T01:22:14;9.18;;;2.03;;
41323;SDS011;27073;51.128;4.220;2023-03-14T01:24:40;12.75;;;3.05;;
41323;SDS011;27073;51.128;4.220;2023-03-14T01:27:06;9.68;;;1.70;;
41323;SDS011;27073;51.128;4.220;2023-03-14T01:29:32;10.68;;;2.08;;
41323;SDS011;27073;51.128;4.220;2023-03-14T01:31:58;10.20;;;2.58;;
41323;SDS011;27073;51.128;4.220;2023-03-14T01:34:24;6.30;;;1.33;;
41323;SDS011;27073;51.128;4.220;2023-03-14T01:36:50;10.35;;;1.80;;
41323;SDS011;27073;51.128;4.220;2023-03-14T01:39:16;9.65;;;1.90;;
41323;SDS011;27073;51.128;4.220;2023-03-14T01:41:42;8.10;;;1.90;;
41323;SDS011;27073;51.128;4.220;2023-03-14T01:44:11;9.75;;;1.90;;
41323;SDS011;27073;51.128;4.220;2023-03-14T01:49:11;6.22;;;1.88;;
41323;SDS011;27073;51.128;4.220;2023-03-14T01:51:59;8.73;;;1.75;;
41323;SDS011;27073;51.128;4.220;2023-03-14T01:54:39;11.68;;;2.22;;
41323;SDS011;27073;51.128;4.220;2023-03-14T01:57:14;10.52;;;1.50;;
41323;SDS011;27073;51.128;4.220;2023-03-14T02:00:26;9.93;;;2.63;;
41323;SDS011;27073;51.128;4.220;2023-03-14T02:02:44;9.80;;;1.63;;
41323;SDS011;27073;51.128;4.220;2023-03-14T02:05:24;10.75;;;2.95;;
41323;SDS011;27073;51.128;4.220;2023-03-14T02:08:00;6.63;;;1.40;;
41323;SDS011;27073;51.128;4.220;2023-03-14T02:10:45;7.32;;;1.90;;
41323;SDS011;27073;51.128;4.220;2023-03-14T02:13:14;10.85;;;1.50;;
41323;SDS011;27073;51.128;4.220;2023-03-14T02:18:41;9.80;;;2.28;;
41323;SDS011;27073;51.128;4.220;2023-03-14T02:23:51;9.48;;;1.58;;
41323;SDS011;27073;51.128;4.220;2023-03-14T02:26:26;8.25;;;1.70;;
41323;SDS011;27073;51.128;4.220;2023-03-14T02:28:57;6.75;;;1.55;;
41323;SDS011;27073;51.128;4.220;2023-03-14T02:31:23;7.45;;;2.28;;
41323;SDS011;27073;51.128;4.220;2023-03-14T02:33:49;8.88;;;2.00;;
41323;SDS011;27073;51.128;4.220;2023-03-14T02:36:16;5.95;;;1.42;;
41323;SDS011;27073;51.128;4.220;2023-03-14T02:38:48;7.82;;;1.48;;
41323;SDS011;27073;51.128;4.220;2023-03-14T02:41:18;5.82;;;1.13;;
41323;SDS011;27073;51.128;4.220;2023-03-14T02:43:52;7.15;;;1.30;;
41323;SDS011;27073;51.128;4.220;2023-03-14T02:46:18;5.28;;;0.90;;
41323;SDS011;27073;51.128;4.220;2023-03-14T02:48:56;7.80;;;1.80;;
41323;SDS011;27073;51.128;4.220;2023-03-14T02:51:26;11.35;;;1.88;;
41323;SDS011;27073;51.128;4.220;2023-03-14T02:53:53;5.38;;;1.00;;
41323;SDS011;27073;51.128;4.220;2023-03-14T02:56:21;7.90;;;1.95;;
41323;SDS011;27073;51.128;4.220;2023-03-14T02:58:47;5.70;;;1.15;;
41323;SDS011;27073;51.128;4.220;2023-03-14T03:01:23;6.28;;;1.33;;
41323;SDS011;27073;51.128;4.220;2023-03-14T03:03:49;6.47;;;1.30;;
41323;SDS011;27073;51.128;4.220;2023-03-14T03:06:18;4.50;;;1.02;;
41323;SDS011;27073;51.128;4.220;2023-03-14T03:08:44;6.07;;;1.20;;
41323;SDS011;27073;51.128;4.220;2023-03-14T03:11:09;6.65;;;1.40;;
41323;SDS011;27073;51.128;4.220;2023-03-14T03:13:36;5.43;;;1.10;;
41323;SDS011;27073;51.128;4.220;2023-03-14T03:16:03;6.53;;;1.42;;
41323;SDS011;27073;51.128;4.220;2023-03-14T03:18:30;8.13;;;1.67;;
41323;SDS011;27073;51.128;4.220;2023-03-14T03:21:01;5.38;;;1.58;;
41323;SDS011;27073;51.128;4.220;2023-03-14T03:23:28;8.63;;;1.67;;
41323;SDS011;27073;51.128;4.220;2023-03-14T03:25:54;8.70;;;1.45;;
41323;SDS011;27073;51.128;4.220;2023-03-14T03:28:20;9.70;;;1.90;;
41323;SDS011;27073;51.128;4.220;2023-03-14T03:30:46;8.82;;;2.33;;
41323;SDS011;27073;51.128;4.220;2023-03-14T03:33:12;9.38;;;2.00;;
41323;SDS011;27073;51.128;4.220;2023-03-14T03:35:45;10.73;;;1.98;;
41323;SDS011;27073;51.128;4.220;2023-03-14T03:38:15;9.82;;;2.05;;
41323;SDS011;27073;51.128;4.220;2023-03-14T03:40:42;11.50;;;2.75;;
41323;SDS011;27073;51.128;4.220;2023-03-14T03:43:09;8.48;;;2.20;;
41323;SDS011;27073;51.128;4.220;2023-03-14T03:45:38;10.45;;;3.08;;
41323;SDS011;27073;51.128;4.220;2023-03-14T03:48:05;16.23;;;3.95;;
41323;SDS011;27073;51.128;4.220;2023-03-14T03:50:31;11.73;;;2.50;;
41323;SDS011;27073;51.128;4.220;2023-03-14T03:52:57;7.45;;;2.10;;
41323;SDS011;27073;51.128;4.220;2023-03-14T03:55:22;11.80;;;3.17;;
41323;SDS011;27073;51.128;4.220;2023-03-14T03:57:48;10.35;;;2.65;;
41323;SDS011;27073;51.128;4.220;2023-03-14T04:00:14;9.35;;;2.75;;
41323;SDS011;27073;51.128;4.220;2023-03-14T04:02:40;10.70;;;2.67;;
41323;SDS011;27073;51.128;4.220;2023-03-14T04:05:07;10.27;;;3.05;;
41323;SDS011;27073;51.128;4.220;2023-03-14T04:07:34;14.82;;;2.97;;
41323;SDS011;27073;51.128;4.220;2023-03-14T04:10:00;6.40;;;2.88;;
41323;SDS011;27073;51.128;4.220;2023-03-14T04:12:35;10.80;;;2.90;;
41323;SDS011;27073;51.128;4.220;2023-03-14T04:15:06;9.15;;;2.70;;
41323;SDS011;27073;51.128;4.220;2023-03-14T04:17:33;10.90;;;2.47;;
41323;SDS011;27073;51.128;4.220;2023-03-14T04:19:59;9.38;;;3.25;;
41323;SDS011;27073;51.128;4.220;2023-03-14T04:22:33;8.88;;;2.47;;
41323;SDS011;27073;51.128;4.220;2023-03-14T04:24:59;12.30;;;3.15;;
41323;SDS011;27073;51.128;4.220;2023-03-14T04:27:27;11.32;;;2.60;;
41323;SDS011;27073;51.128;4.220;2023-03-14T04:29:55;9.45;;;3.42;;
41323;SDS011;27073;51.128;4.220;2023-03-14T04:32:38;11.07;;;2.97;;
41323;SDS011;27073;51.128;4.220;2023-03-14T04:35:04;13.15;;;3.90;;
41323;SDS011;27073;51.128;4.220;2023-03-14T04:37:30;8.55;;;3.20;;
41323;SDS011;27073;51.128;4.220;2023-03-14T04:39:56;8.65;;;3.25;;
41323;SDS011;27073;51.128;4.220;2023-03-14T04:42:25;11.02;;;3.85;;
41323;SDS011;27073;51.128;4.220;2023-03-14T04:44:51;8.32;;;3.70;;
41323;SDS011;27073;51.128;4.220;2023-03-14T04:47:20;9.25;;;3.67;;
41323;SDS011;27073;51.128;4.220;2023-03-14T04:49:47;9.18;;;3.55;;
41323;SDS011;27073;51.128;4.220;2023-03-14T04:52:14;8.35;;;3.42;;
41323;SDS011;27073;51.128;4.220;2023-03-14T04:54:41;11.98;;;4.32;;
41323;SDS011;27073;51.128;4.220;2023-03-14T04:57:06;9.18;;;3.78;;
41323;SDS011;27073;51.128;4.220;2023-03-14T04:59:35;7.20;;;4.45;;
41323;SDS011;27073;51.128;4.220;2023-03-14T05:02:13;10.35;;;4.70;;
41323;SDS011;27073;51.128;4.220;2023-03-14T05:04:55;9.77;;;4.15;;
41323;SDS011;27073;51.128;4.220;2023-03-14T05:07:44;8.80;;;4.10;;
41323;SDS011;27073;51.128;4.220;2023-03-14T05:10:33;10.05;;;3.33;;
41323;SDS011;27073;51.128;4.220;2023-03-14T05:13:22;9.20;;;4.05;;
41323;SDS011;27073;51.128;4.220;2023-03-14T05:16:11;11.05;;;4.10;;
41323;SDS011;27073;51.128;4.220;2023-03-14T05:18:46;8.18;;;3.25;;
41323;SDS011;27073;51.128;4.220;2023-03-14T05:21:31;8.07;;;3.22;;
41323;SDS011;27073;51.128;4.220;2023-03-14T05:24:15;5.28;;;2.33;;
41323;SDS011;27073;51.128;4.220;2023-03-14T05:26:59;8.50;;;2.78;;
41323;SDS011;27073;51.128;4.220;2023-03-14T05:29:37;6.70;;;2.22;;
41323;SDS011;27073;51.128;4.220;2023-03-14T05:32:22;5.93;;;2.20;;
41323;SDS011;27073;51.128;4.220;2023-03-14T05:34:50;6.22;;;2.58;;
41323;SDS011;27073;51.128;4.220;2023-03-14T05:37:30;6.13;;;2.70;;
41323;SDS011;27073;51.128;4.220;2023-03-14T05:40:28;4.63;;;2.30;;
41323;SDS011;27073;51.128;4.220;2023-03-14T05:43:17;6.47;;;2.53;;
41323;SDS011;27073;51.128;4.220;2023-03-14T05:45:56;7.50;;;2.42;;
41323;SDS011;27073;51.128;4.220;2023-03-14T05:48:48;7.07;;;3.40;;
41323;SDS011;27073;51.128;4.220;2023-03-14T05:51:33;5.72;;;2.55;;
41323;SDS011;27073;51.128;4.220;2023-03-14T05:54:16;5.70;;;2.50;;
41323;SDS011;27073;51.128;4.220;2023-03-14T05:57:00;4.40;;;2.60;;
41323;SDS011;27073;51.128;4.220;2023-03-14T05:59:49;8.02;;;2.88;;
41323;SDS011;27073;51.128;4.220;2023-03-14T06:02:33;5.63;;;3.05;;
41323;SDS011;27073;51.128;4.220;2023-03-14T06:05:07;8.38;;;3.05;;
41323;SDS011;27073;51.128;4.220;2023-03-14T06:07:34;4.80;;;2.85;;
41323;SDS011;27073;51.128;4.220;2023-03-14T06:10:00;4.07;;;2.42;;
41323;SDS011;27073;51.128;4.220;2023-03-14T06:12:26;6.47;;;3.08;;
41323;SDS011;27073;51.128;4.220;2023-03-14T06:14:52;6.25;;;3.20;;
41323;SDS011;27073;51.128;4.220;2023-03-14T06:17:18;6.10;;;2.88;;
41323;SDS011;27073;51.128;4.220;2023-03-14T06:19:50;9.90;;;3.40;;
41323;SDS011;27073;51.128;4.220;2023-03-14T06:22:16;7.68;;;4.13;;
41323;SDS011;27073;51.128;4.220;2023-03-14T06:24:42;6.50;;;2.55;;
41323;SDS011;27073;51.128;4.220;2023-03-14T06:27:08;7.97;;;2.15;;
41323;SDS011;27073;51.128;4.220;2023-03-14T06:29:34;5.18;;;1.75;;
41323;SDS011;27073;51.128;4.220;2023-03-14T06:32:01;3.92;;;1.25;;
41323;SDS011;27073;51.128;4.220;2023-03-14T06:34:27;3.17;;;1.17;;
41323;SDS011;27073;51.128;4.220;2023-03-14T06:36:53;5.90;;;1.52;;
41323;SDS011;27073;51.128;4.220;2023-03-14T06:39:19;3.78;;;1.40;;
41323;SDS011;27073;51.128;4.220;2023-03-14T06:41:49;6.03;;;1.40;;
41323;SDS011;27073;51.128;4.220;2023-03-14T06:44:16;6.57;;;1.27;;
41323;SDS011;27073;51.128;4.220;2023-03-14T06:46:43;6.22;;;2.35;;
41323;SDS011;27073;51.128;4.220;2023-03-14T06:49:08;5.90;;;2.13;;
41323;SDS011;27073;51.128;4.220;2023-03-14T06:51:35;6.60;;;1.75;;
41323;SDS011;27073;51.128;4.220;2023-03-14T06:54:03;5.13;;;1.30;;
41323;SDS011;27073;51.128;4.220;2023-03-14T06:56:29;5.88;;;1.83;;
41323;SDS011;27073;51.128;4.220;2023-03-14T06:58:56;5.90;;;1.33;;
41323;SDS011;27073;51.128;4.220;2023-03-14T07:01:24;7.07;;;2.70;;
41323;SDS011;27073;51.128;4.220;2023-03-14T07:03:56;9.27;;;1.88;;
41323;SDS011;27073;51.128;4.220;2023-03-14T07:06:22;5.88;;;1.80;;
41323;SDS011;27073;51.128;4.220;2023-03-14T07:08:48;4.30;;;1.73;;
41323;SDS011;27073;51.128;4.220;2023-03-14T07:11:15;2.65;;;1.52;;
41323;SDS011;27073;51.128;4.220;2023-03-14T07:13:41;5.38;;;1.42;;
41323;SDS011;27073;51.128;4.220;2023-03-14T07:16:10;9.23;;;2.13;;
41323;SDS011;27073;51.128;4.220;2023-03-14T07:18:36;6.47;;;2.10;;
41323;SDS011;27073;51.128;4.220;2023-03-14T07:21:04;8.57;;;1.77;;
41323;SDS011;27073;51.128;4.220;2023-03-14T07:23:31;6.38;;;2.05;;
41323;SDS011;27073;51.128;4.220;2023-03-14T07:25:57;6.00;;;2.17;;
41323;SDS011;27073;51.128;4.220;2023-03-14T07:28:25;10.23;;;2.00;;
41323;SDS011;27073;51.128;4.220;2023-03-14T07:30:58;5.75;;;1.88;;
41323;SDS011;27073;51.128;4.220;2023-03-14T07:33:29;9.18;;;2.15;;
41323;SDS011;27073;51.128;4.220;2023-03-14T07:35:55;8.07;;;2.05;;
41323;SDS011;27073;51.128;4.220;2023-03-14T07:38:22;7.82;;;2.10;;
41323;SDS011;27073;51.128;4.220;2023-03-14T07:41:10;11.27;;;3.47;;
41323;SDS011;27073;51.128;4.220;2023-03-14T07:43:49;10.55;;;2.40;;
41323;SDS011;27073;51.128;4.220;2023-03-14T07:46:14;9.00;;;1.98;;
41323;SDS011;27073;51.128;4.220;2023-03-14T07:48:40;7.60;;;2.10;;
41323;SDS011;27073;51.128;4.220;2023-03-14T07:51:06;7.82;;;1.90;;
41323;SDS011;27073;51.128;4.220;2023-03-14T07:53:32;7.05;;;2.00;;
41323;SDS011;27073;51.128;4.220;2023-03-14T07:55:58;5.88;;;2.00;;
41323;SDS011;27073;51.128;4.220;2023-03-14T07:58:24;7.13;;;1.67;;
41323;SDS011;27073;51.128;4.220;2023-03-14T08:00:50;4.28;;;1.75;;
41323;SDS011;27073;51.128;4.220;2023-03-14T08:03:17;5.25;;;2.20;;
41323;SDS011;27073;51.128;4.220;2023-03-14T08:05:43;6.53;;;1.83;;
41323;SDS011;27073;51.128;4.220;2023-03-14T08:08:09;7.85;;;2.08;;
41323;SDS011;27073;51.128;4.220;2023-03-14T08:10:35;7.15;;;2.03;;
41323;SDS011;27073;51.128;4.220;2023-03-14T08:13:00;9.48;;;2.40;;
41323;SDS011;27073;51.128;4.220;2023-03-14T08:15:27;7.35;;;2.72;;
41323;SDS011;27073;51.128;4.220;2023-03-14T08:17:55;8.65;;;2.83;;
41323;SDS011;27073;51.128;4.220;2023-03-14T08:20:21;8.27;;;2.17;;
41323;SDS011;27073;51.128;4.220;2023-03-14T08:22:49;9.80;;;3.05;;
41323;SDS011;27073;51.128;4.220;2023-03-14T08:25:15;9.73;;;2.22;;
41323;SDS011;27073;51.128;4.220;2023-03-14T08:27:41;7.72;;;1.52;;
41323;SDS011;27073;51.128;4.220;2023-03-14T08:30:08;6.30;;;1.48;;
41323;SDS011;27073;51.128;4.220;2023-03-14T08:32:36;8.90;;;2.20;;
41323;SDS011;27073;51.128;4.220;2023-03-14T08:35:02;7.78;;;1.38;;
41323;SDS011;27073;51.128;4.220;2023-03-14T08:37:30;4.57;;;1.05;;
41323;SDS011;27073;51.128;4.220;2023-03-14T08:39:56;5.30;;;1.30;;
41323;SDS011;27073;51.128;4.220;2023-03-14T08:42:22;3.10;;;1.23;;
41323;SDS011;27073;51.128;4.220;2023-03-14T08:44:48;3.40;;;1.15;;
41323;SDS011;27073;51.128;4.220;2023-03-14T08:47:15;4.30;;;1.55;;
41323;SDS011;27073;51.128;4.220;2023-03-14T08:49:41;5.35;;;1.23;;
41323;SDS011;27073;51.128;4.220;2023-03-14T08:52:07;6.60;;;1.30;;
41323;SDS011;27073;51.128;4.220;2023-03-14T08:54:33;7.28;;;1.90;;
41323;SDS011;27073;51.128;4.220;2023-03-14T08:56:58;6.63;;;1.92;;
41323;SDS011;27073;51.128;4.220;2023-03-14T08:59:24;4.57;;;2.10;;
41323;SDS011;27073;51.128;4.220;2023-03-14T09:01:50;3.40;;;1.73;;
41323;SDS011;27073;51.128;4.220;2023-03-14T09:04:15;3.72;;;1.88;;
41323;SDS011;27073;51.128;4.220;2023-03-14T09:06:41;5.18;;;2.40;;
41323;SDS011;27073;51.128;4.220;2023-03-14T09:09:07;6.30;;;2.75;;
41323;SDS011;27073;51.128;4.220;2023-03-14T09:11:33;5.38;;;2.67;;
41323;SDS011;27073;51.128;4.220;2023-03-14T09:13:59;7.63;;;2.75;;
41323;SDS011;27073;51.128;4.220;2023-03-14T09:16:25;5.72;;;3.22;;
41323;SDS011;27073;51.128;4.220;2023-03-14T09:18:50;9.30;;;3.13;;
41323;SDS011;27073;51.128;4.220;2023-03-14T09:21:20;6.60;;;3.08;;
41323;SDS011;27073;51.128;4.220;2023-03-14T09:23:46;8.25;;;3.20;;
41323;SDS011;27073;51.128;4.220;2023-03-14T09:26:12;5.32;;;3.53;;
41323;SDS011;27073;51.128;4.220;2023-03-14T09:28:38;6.00;;;2.92;;
41323;SDS011;27073;51.128;4.220;2023-03-14T09:31:10;4.63;;;3.67;;
41323;SDS011;27073;51.128;4.220;2023-03-14T09:33:36;6.90;;;2.97;;
41323;SDS011;27073;51.128;4.220;2023-03-14T09:36:03;8.55;;;2.88;;
41323;SDS011;27073;51.128;4.220;2023-03-14T09:38:29;5.47;;;2.58;;
41323;SDS011;27073;51.128;4.220;2023-03-14T09:40:55;5.47;;;2.90;;
41323;SDS011;27073;51.128;4.220;2023-03-14T09:43:23;5.78;;;2.60;;
41323;SDS011;27073;51.128;4.220;2023-03-14T09:45:52;4.40;;;1.75;;
41323;SDS011;27073;51.128;4.220;2023-03-14T09:48:22;4.13;;;1.70;;
41323;SDS011;27073;51.128;4.220;2023-03-14T09:50:53;4.25;;;2.10;;
41323;SDS011;27073;51.128;4.220;2023-03-14T09:53:21;2.53;;;1.27;;
41323;SDS011;27073;51.128;4.220;2023-03-14T09:55:51;2.25;;;1.50;;
41323;SDS011;27073;51.128;4.220;2023-03-14T09:58:23;6.57;;;1.83;;
41323;SDS011;27073;51.128;4.220;2023-03-14T10:00:49;4.97;;;1.38;;
41323;SDS011;27073;51.128;4.220;2023-03-14T10:05:52;3.20;;;1.20;;
41323;SDS011;27073;51.128;4.220;2023-03-14T10:08:18;3.97;;;1.33;;
41323;SDS011;27073;51.128;4.220;2023-03-14T10:10:44;4.80;;;1.38;;
41323;SDS011;27073;51.128;4.220;2023-03-14T10:13:17;2.72;;;1.45;;
41323;SDS011;27073;51.128;4.220;2023-03-14T10:15:47;3.53;;;1.08;;
41323;SDS011;27073;51.128;4.220;2023-03-14T10:18:16;4.25;;;1.23;;
41323;SDS011;27073;51.128;4.220;2023-03-14T10:20:43;5.57;;;1.70;;
41323;SDS011;27073;51.128;4.220;2023-03-14T10:25:41;7.45;;;1.77;;
41323;SDS011;27073;51.128;4.220;2023-03-14T10:28:24;6.53;;;1.30;;
41323;SDS011;27073;51.128;4.220;2023-03-14T10:30:52;9.90;;;2.08;;
41323;SDS011;27073;51.128;4.220;2023-03-14T10:35:44;12.73;;;2.78;;
41323;SDS011;27073;51.128;4.220;2023-03-14T10:38:16;9.48;;;1.42;;
41323;SDS011;27073;51.128;4.220;2023-03-14T10:40:49;8.93;;;1.65;;
41323;SDS011;27073;51.128;4.220;2023-03-14T10:46:15;11.15;;;2.42;;
41323;SDS011;27073;51.128;4.220;2023-03-14T10:49:04;13.45;;;2.75;;
41323;SDS011;27073;51.128;4.220;2023-03-14T10:51:31;8.48;;;1.60;;
41323;SDS011;27073;51.128;4.220;2023-03-14T10:56:38;6.20;;;1.30;;
41323;SDS011;27073;51.128;4.220;2023-03-14T10:59:06;2.75;;;1.35;;
41323;SDS011;27073;51.128;4.220;2023-03-14T11:02:00;4.95;;;1.50;;
41323;SDS011;27073;51.128;4.220;2023-03-14T11:21:15;9.50;;;1.42;;
41323;SDS011;27073;51.128;4.220;2023-03-14T11:24:14;8.60;;;1.77;;
41323;SDS011;27073;51.128;4.220;2023-03-14T11:27:18;13.93;;;1.38;;
41323;SDS011;27073;51.128;4.220;2023-03-14T11:32:38;9.38;;;1.60;;
41323;SDS011;27073;51.128;4.220;2023-03-14T11:35:44;11.73;;;2.03;;
41323;SDS011;27073;51.128;4.220;2023-03-14T11:38:18;16.63;;;2.90;;
41323;SDS011;27073;51.128;4.220;2023-03-14T11:40:58;14.07;;;3.42;;
41323;SDS011;27073;51.128;4.220;2023-03-14T11:43:28;17.40;;;3.05;;
41323;SDS011;27073;51.128;4.220;2023-03-14T11:46:06;21.88;;;2.63;;
41323;SDS011;27073;51.128;4.220;2023-03-14T11:51:35;22.50;;;3.58;;
41323;SDS011;27073;51.128;4.220;2023-03-14T11:54:24;19.92;;;3.30;;
41323;SDS011;27073;51.128;4.220;2023-03-14T11:57:21;24.23;;;4.47;;
41323;SDS011;27073;51.128;4.220;2023-03-14T12:02:25;21.63;;;3.20;;
41323;SDS011;27073;51.128;4.220;2023-03-14T12:10:16;19.17;;;3.40;;
41323;SDS011;27073;51.128;4.220;2023-03-14T12:12:41;22.30;;;3.95;;
41323;SDS011;27073;51.128;4.220;2023-03-14T12:15:18;18.67;;;3.15;;
41323;SDS011;27073;51.128;4.220;2023-03-14T12:17:45;18.67;;;3.05;;
41323;SDS011;27073;51.128;4.220;2023-03-14T12:22:54;10.05;;;2.35;;
41323;SDS011;27073;51.128;4.220;2023-03-14T12:25:28;11.60;;;2.97;;
41323;SDS011;27073;51.128;4.220;2023-03-14T12:30:35;17.25;;;3.03;;
41323;SDS011;27073;51.128;4.220;2023-03-14T12:38:48;15.52;;;3.05;;
41323;SDS011;27073;51.128;4.220;2023-03-14T12:41:17;19.02;;;3.92;;
41323;SDS011;27073;51.128;4.220;2023-03-14T12:43:51;15.82;;;3.75;;
41323;SDS011;27073;51.128;4.220;2023-03-14T12:48:56;21.75;;;3.92;;
41323;SDS011;27073;51.128;4.220;2023-03-14T12:51:39;26.42;;;4.22;;
41323;SDS011;27073;51.128;4.220;2023-03-14T13:02:17;19.30;;;3.25;;
41323;SDS011;27073;51.128;4.220;2023-03-14T13:05:09;23.98;;;4.47;;
41323;SDS011;27073;51.128;4.220;2023-03-14T13:13:17;20.33;;;3.45;;
41323;SDS011;27073;51.128;4.220;2023-03-14T13:15:39;15.80;;;3.33;;
41323;SDS011;27073;51.128;4.220;2023-03-14T13:20:54;19.48;;;3.53;;
41323;SDS011;27073;51.128;4.220;2023-03-14T13:23:25;15.23;;;3.10;;
41323;SDS011;27073;51.128;4.220;2023-03-14T13:25:52;14.50;;;2.70;;
41323;SDS011;27073;51.128;4.220;2023-03-14T13:28:19;16.73;;;3.67;;
41323;SDS011;27073;51.128;4.220;2023-03-14T13:30:48;10.95;;;2.47;;
41323;SDS011;27073;51.128;4.220;2023-03-14T13:33:20;10.57;;;2.08;;
41323;SDS011;27073;51.128;4.220;2023-03-14T13:35:54;8.55;;;1.80;;
41323;SDS011;27073;51.128;4.220;2023-03-14T13:38:25;11.13;;;2.65;;
41323;SDS011;27073;51.128;4.220;2023-03-14T13:40:54;11.35;;;1.73;;
41323;SDS011;27073;51.128;4.220;2023-03-14T13:43:34;9.93;;;1.63;;
41323;SDS011;27073;51.128;4.220;2023-03-14T13:48:32;6.15;;;1.70;;
41323;SDS011;27073;51.128;4.220;2023-03-14T13:51:06;16.08;;;2.35;;
41323;SDS011;27073;51.128;4.220;2023-03-14T13:53:42;13.13;;;2.10;;
41323;SDS011;27073;51.128;4.220;2023-03-14T13:56:11;9.02;;;1.40;;
41323;SDS011;27073;51.128;4.220;2023-03-14T13:58:38;11.80;;;2.28;;
41323;SDS011;27073;51.128;4.220;2023-03-14T14:01:15;13.68;;;2.45;;
41323;SDS011;27073;51.128;4.220;2023-03-14T14:03:50;12.45;;;1.98;;
41323;SDS011;27073;51.128;4.220;2023-03-14T14:06:31;8.45;;;1.85;;
41323;SDS011;27073;51.128;4.220;2023-03-14T14:09:01;7.53;;;1.15;;
41323;SDS011;27073;51.128;4.220;2023-03-14T14:11:48;6.80;;;1.33;;
41323;SDS011;27073;51.128;4.220;2023-03-14T14:17:01;0.82;;;0.30;;
41323;SDS011;27073;51.128;4.220;2023-03-14T14:19:30;2.38;;;0.35;;
41323;SDS011;27073;51.128;4.220;2023-03-14T14:21:59;1.85;;;0.30;;
41323;SDS011;27073;51.128;4.220;2023-03-14T14:24:28;2.60;;;0.60;;
41323;SDS011;27073;51.128;4.220;2023-03-14T14:27:00;2.83;;;0.52;;
41323;SDS011;27073;51.128;4.220;2023-03-14T14:29:28;2.60;;;0.40;;
41323;SDS011;27073;51.128;4.220;2023-03-14T14:32:14;2.65;;;0.50;;
41323;SDS011;27073;51.128;4.220;2023-03-14T14:34:55;1.98;;;0.40;;
41323;SDS011;27073;51.128;4.220;2023-03-14T14:37:22;3.28;;;0.73;;
41323;SDS011;27073;51.128;4.220;2023-03-14T14:39:54;4.80;;;0.80;;
41323;SDS011;27073;51.128;4.220;2023-03-14T14:42:24;2.38;;;0.43;;
41323;SDS011;27073;51.128;4.220;2023-03-14T14:47:20;5.78;;;0.82;;
41323;SDS011;27073;51.128;4.220;2023-03-14T14:49:48;5.10;;;0.98;;
41323;SDS011;27073;51.128;4.220;2023-03-14T14:52:19;8.32;;;1.60;;
41323;SDS011;27073;51.128;4.220;2023-03-14T14:54:47;7.45;;;1.30;;
41323;SDS011;27073;51.128;4.220;2023-03-14T14:57:24;5.80;;;1.35;;
41323;SDS011;27073;51.128;4.220;2023-03-14T14:59:56;4.88;;;1.70;;
41323;SDS011;27073;51.128;4.220;2023-03-14T15:02:35;5.95;;;1.38;;
41323;SDS011;27073;51.128;4.220;2023-03-14T15:05:13;8.25;;;1.60;;
41323;SDS011;27073;51.128;4.220;2023-03-14T15:07:40;7.25;;;1.55;;
41323;SDS011;27073;51.128;4.220;2023-03-14T15:10:06;7.53;;;1.73;;
41323;SDS011;27073;51.128;4.220;2023-03-14T15:12:40;10.48;;;1.92;;
41323;SDS011;27073;51.128;4.220;2023-03-14T15:15:06;11.13;;;2.92;;
41323;SDS011;27073;51.128;4.220;2023-03-14T15:17:32;11.00;;;1.80;;
41323;SDS011;27073;51.128;4.220;2023-03-14T15:19:58;9.60;;;1.55;;
41323;SDS011;27073;51.128;4.220;2023-03-14T15:22:24;14.15;;;2.63;;
41323;SDS011;27073;51.128;4.220;2023-03-14T15:24:49;11.75;;;1.52;;
41323;SDS011;27073;51.128;4.220;2023-03-14T15:27:16;11.88;;;2.10;;
41323;SDS011;27073;51.128;4.220;2023-03-14T15:29:43;12.73;;;2.38;;
41323;SDS011;27073;51.128;4.220;2023-03-14T15:32:11;11.93;;;1.40;;
41323;SDS011;27073;51.128;4.220;2023-03-14T15:34:38;12.02;;;2.17;;
41323;SDS011;27073;51.128;4.220;2023-03-14T15:37:04;17.40;;;2.47;;
41323;SDS011;27073;51.128;4.220;2023-03-14T15:39:35;11.35;;;2.08;;
41323;SDS011;27073;51.128;4.220;2023-03-14T15:42:01;16.40;;;3.55;;
41323;SDS011;27073;51.128;4.220;2023-03-14T15:44:27;13.43;;;2.80;;
41323;SDS011;27073;51.128;4.220;2023-03-14T15:46:52;14.05;;;2.47;;
41323;SDS011;27073;51.128;4.220;2023-03-14T15:49:18;12.68;;;2.38;;
41323;SDS011;27073;51.128;4.220;2023-03-14T15:51:44;6.57;;;1.80;;
41323;SDS011;27073;51.128;4.220;2023-03-14T15:54:09;9.35;;;1.85;;
41323;SDS011;27073;51.128;4.220;2023-03-14T15:56:35;10.05;;;1.65;;
41323;SDS011;27073;51.128;4.220;2023-03-14T15:59:01;12.18;;;1.98;;
41323;SDS011;27073;51.128;4.220;2023-03-14T16:01:27;10.20;;;1.92;;
41323;SDS011;27073;51.128;4.220;2023-03-14T16:03:52;11.43;;;1.80;;
41323;SDS011;27073;51.128;4.220;2023-03-14T16:06:18;11.80;;;1.58;;
41323;SDS011;27073;51.128;4.220;2023-03-14T16:08:45;13.88;;;2.63;;
41323;SDS011;27073;51.128;4.220;2023-03-14T16:11:11;14.70;;;2.05;;
41323;SDS011;27073;51.128;4.220;2023-03-14T16:13:39;10.73;;;2.58;;
41323;SDS011;27073;51.128;4.220;2023-03-14T16:16:06;5.70;;;1.33;;
41323;SDS011;27073;51.128;4.220;2023-03-14T16:18:33;6.30;;;1.75;;
41323;SDS011;27073;51.128;4.220;2023-03-14T16:21:05;9.40;;;2.42;;
41323;SDS011;27073;51.128;4.220;2023-03-14T16:23:39;9.75;;;2.08;;
41323;SDS011;27073;51.128;4.220;2023-03-14T16:26:06;8.70;;;2.15;;
41323;SDS011;27073;51.128;4.220;2023-03-14T16:28:34;16.65;;;2.45;;
41323;SDS011;27073;51.128;4.220;2023-03-14T16:31:01;14.10;;;2.42;;